sensor_id;sensor_type;location;lat;lon;timestamp;temperature;humidity
12477;DHT22;6303;51.504;6.300;2022-07-05T00:00:13;29.80;49.20
12477;DHT22;6303;51.504;6.300;2022-07-05T00:02:40;29.80;49.20
12477;DHT22;6303;51.504;6.300;2022-07-05T00:05:07;29.80;49.20
12477;DHT22;6303;51.504;6.300;2022-07-05T00:07:34;29.80;49.20
12477;DHT22;6303;51.504;6.300;2022-07-05T00:10:04;29.80;49.20
12477;DHT22;6303;51.504;6.300;2022-07-05T00:12:32;29.80;49.30
12477;DHT22;6303;51.504;6.300;2022-07-05T00:15:00;29.80;49.30
12477;DHT22;6303;51.504;6.300;2022-07-05T00:17:27;29.80;49.30
12477;DHT22;6303;51.504;6.300;2022-07-05T00:19:54;29.80;49.30
12477;DHT22;6303;51.504;6.300;2022-07-05T00:22:21;29.80;49.20
12477;DHT22;6303;51.504;6.300;2022-07-05T00:24:48;29.80;49.20
12477;DHT22;6303;51.504;6.300;2022-07-05T00:27:17;29.80;49.20
12477;DHT22;6303;51.504;6.300;2022-07-05T00:29:45;29.80;49.20
12477;DHT22;6303;51.504;6.300;2022-07-05T00:32:12;29.80;49.20
12477;DHT22;6303;51.504;6.300;2022-07-05T00:34:39;29.80;48.70
12477;DHT22;6303;51.504;6.300;2022-07-05T00:37:06;29.70;49.20
12477;DHT22;6303;51.504;6.300;2022-07-05T00:39:34;29.80;49.30
12477;DHT22;6303;51.504;6.300;2022-07-05T00:42:01;29.80;49.20
12477;DHT22;6303;51.504;6.300;2022-07-05T00:44:32;29.70;48.70
12477;DHT22;6303;51.504;6.300;2022-07-05T00:47:00;29.70;49.20
12477;DHT22;6303;51.504;6.300;2022-07-05T00:49:29;29.80;49.30
12477;DHT22;6303;51.504;6.300;2022-07-05T00:51:57;29.80;49.30
12477;DHT22;6303;51.504;6.300;2022-07-05T00:54:25;29.70;49.20
12477;DHT22;6303;51.504;6.300;2022-07-05T00:56:52;29.80;49.20
12477;DHT22;6303;51.504;6.300;2022-07-05T00:59:19;29.70;49.10
12477;DHT22;6303;51.504;6.300;2022-07-05T01:01:48;29.70;49.10
12477;DHT22;6303;51.504;6.300;2022-07-05T01:04:15;29.70;49.10
12477;DHT22;6303;51.504;6.300;2022-07-05T01:06:44;29.70;49.10
12477;DHT22;6303;51.504;6.300;2022-07-05T01:09:13;29.70;49.10
12477;DHT22;6303;51.504;6.300;2022-07-05T01:11:42;29.70;49.20
12477;DHT22;6303;51.504;6.300;2022-07-05T01:14:11;29.70;49.20
12477;DHT22;6303;51.504;6.300;2022-07-05T01:16:39;29.70;49.30
12477;DHT22;6303;51.504;6.300;2022-07-05T01:19:10;29.70;49.20
12477;DHT22;6303;51.504;6.300;2022-07-05T01:21:39;29.70;49.30
12477;DHT22;6303;51.504;6.300;2022-07-05T01:24:09;29.70;49.30
12477;DHT22;6303;51.504;6.300;2022-07-05T01:26:36;29.60;49.20
12477;DHT22;6303;51.504;6.300;2022-07-05T01:29:04;29.60;49.10
12477;DHT22;6303;51.504;6.300;2022-07-05T01:31:32;29.60;49.00
12477;DHT22;6303;51.504;6.300;2022-07-05T01:33:59;29.60;49.00
12477;DHT22;6303;51.504;6.300;2022-07-05T01:36:26;29.60;49.00
12477;DHT22;6303;51.504;6.300;2022-07-05T01:38:53;29.60;49.00
12477;DHT22;6303;51.504;6.300;2022-07-05T01:41:21;29.60;49.00
12477;DHT22;6303;51.504;6.300;2022-07-05T01:43:48;29.60;49.00
12477;DHT22;6303;51.504;6.300;2022-07-05T01:46:17;29.60;48.50
12477;DHT22;6303;51.504;6.300;2022-07-05T01:48:49;29.60;49.00
12477;DHT22;6303;51.504;6.300;2022-07-05T01:51:21;29.60;48.90
12477;DHT22;6303;51.504;6.300;2022-07-05T01:53:50;29.60;48.90
12477;DHT22;6303;51.504;6.300;2022-07-05T01:56:18;29.60;48.80
12477;DHT22;6303;51.504;6.300;2022-07-05T01:58:47;29.60;48.80
12477;DHT22;6303;51.504;6.300;2022-07-05T02:01:15;29.60;48.80
12477;DHT22;6303;51.504;6.300;2022-07-05T02:03:43;29.60;48.80
12477;DHT22;6303;51.504;6.300;2022-07-05T02:06:11;29.60;48.30
12477;DHT22;6303;51.504;6.300;2022-07-05T02:08:38;29.60;48.80
12477;DHT22;6303;51.504;6.300;2022-07-05T02:11:09;29.60;48.20
12477;DHT22;6303;51.504;6.300;2022-07-05T02:13:36;29.60;48.70
12477;DHT22;6303;51.504;6.300;2022-07-05T02:16:06;29.60;48.10
12477;DHT22;6303;51.504;6.300;2022-07-05T02:18:33;29.60;48.70
12477;DHT22;6303;51.504;6.300;2022-07-05T02:21:00;29.60;48.70
12477;DHT22;6303;51.504;6.300;2022-07-05T02:23:28;29.50;48.60
12477;DHT22;6303;51.504;6.300;2022-07-05T02:25:55;29.50;48.70
12477;DHT22;6303;51.504;6.300;2022-07-05T02:28:23;29.60;48.70
12477;DHT22;6303;51.504;6.300;2022-07-05T02:30:51;29.50;48.60
12477;DHT22;6303;51.504;6.300;2022-07-05T02:33:20;29.50;48.60
12477;DHT22;6303;51.504;6.300;2022-07-05T02:35:49;29.50;48.60
12477;DHT22;6303;51.504;6.300;2022-07-05T02:38:16;29.50;48.60
12477;DHT22;6303;51.504;6.300;2022-07-05T02:40:43;29.50;48.60
12477;DHT22;6303;51.504;6.300;2022-07-05T02:43:10;29.50;48.60
12477;DHT22;6303;51.504;6.300;2022-07-05T02:45:37;29.50;48.60
12477;DHT22;6303;51.504;6.300;2022-07-05T02:48:05;29.50;48.60
12477;DHT22;6303;51.504;6.300;2022-07-05T02:50:34;29.40;48.50
12477;DHT22;6303;51.504;6.300;2022-07-05T02:53:04;29.40;48.50
12477;DHT22;6303;51.504;6.300;2022-07-05T02:55:31;29.40;48.40
12477;DHT22;6303;51.504;6.300;2022-07-05T02:57:58;29.40;48.40
12477;DHT22;6303;51.504;6.300;2022-07-05T03:00:29;29.40;48.40
12477;DHT22;6303;51.504;6.300;2022-07-05T03:02:56;29.40;48.40
12477;DHT22;6303;51.504;6.300;2022-07-05T03:05:25;29.40;48.20
12477;DHT22;6303;51.504;6.300;2022-07-05T03:07:59;29.40;48.10
12477;DHT22;6303;51.504;6.300;2022-07-05T03:10:28;29.40;48.10
12477;DHT22;6303;51.504;6.300;2022-07-05T03:12:56;29.40;48.00
12477;DHT22;6303;51.504;6.300;2022-07-05T03:15:24;29.40;48.00
12477;DHT22;6303;51.504;6.300;2022-07-05T03:17:52;29.40;47.90
12477;DHT22;6303;51.504;6.300;2022-07-05T03:20:20;29.40;47.90
12477;DHT22;6303;51.504;6.300;2022-07-05T03:22:48;29.40;47.80
12477;DHT22;6303;51.504;6.300;2022-07-05T03:25:20;29.30;47.70
12477;DHT22;6303;51.504;6.300;2022-07-05T03:27:48;29.30;47.70
12477;DHT22;6303;51.504;6.300;2022-07-05T03:30:15;29.30;47.70
12477;DHT22;6303;51.504;6.300;2022-07-05T03:32:42;29.30;47.60
12477;DHT22;6303;51.504;6.300;2022-07-05T03:35:09;29.30;47.60
12477;DHT22;6303;51.504;6.300;2022-07-05T03:37:37;29.30;47.60
12477;DHT22;6303;51.504;6.300;2022-07-05T03:40:05;29.30;47.60
12477;DHT22;6303;51.504;6.300;2022-07-05T03:42:34;29.30;47.50
12477;DHT22;6303;51.504;6.300;2022-07-05T03:45:03;29.20;47.40
12477;DHT22;6303;51.504;6.300;2022-07-05T03:47:30;29.30;47.50
12477;DHT22;6303;51.504;6.300;2022-07-05T03:49:57;29.30;47.50
12477;DHT22;6303;51.504;6.300;2022-07-05T03:52:25;29.30;47.50
12477;DHT22;6303;51.504;6.300;2022-07-05T03:54:53;29.30;47.40
12477;DHT22;6303;51.504;6.300;2022-07-05T03:57:21;29.30;47.40
12477;DHT22;6303;51.504;6.300;2022-07-05T03:59:50;29.30;47.40
12477;DHT22;6303;51.504;6.300;2022-07-05T04:02:18;29.30;47.40
12477;DHT22;6303;51.504;6.300;2022-07-05T04:04:45;29.30;47.40
12477;DHT22;6303;51.504;6.300;2022-07-05T04:07:13;29.30;47.40
12477;DHT22;6303;51.504;6.300;2022-07-05T04:09:40;29.20;47.30
12477;DHT22;6303;51.504;6.300;2022-07-05T04:12:09;29.20;47.20
12477;DHT22;6303;51.504;6.300;2022-07-05T04:14:37;29.20;47.20
12477;DHT22;6303;51.504;6.300;2022-07-05T04:17:05;29.20;47.10
12477;DHT22;6303;51.504;6.300;2022-07-05T04:19:32;29.20;47.10
12477;DHT22;6303;51.504;6.300;2022-07-05T04:22:00;29.20;47.10
12477;DHT22;6303;51.504;6.300;2022-07-05T04:24:27;29.20;47.20
12477;DHT22;6303;51.504;6.300;2022-07-05T04:26:54;29.20;47.10
12477;DHT22;6303;51.504;6.300;2022-07-05T04:29:22;29.20;47.10
12477;DHT22;6303;51.504;6.300;2022-07-05T04:31:49;29.20;47.10
12477;DHT22;6303;51.504;6.300;2022-07-05T04:34:17;29.20;47.10
12477;DHT22;6303;51.504;6.300;2022-07-05T04:36:46;26.70;45.50
12477;DHT22;6303;51.504;6.300;2022-07-05T04:39:13;29.20;47.20
12477;DHT22;6303;51.504;6.300;2022-07-05T04:41:49;29.20;47.20
12477;DHT22;6303;51.504;6.300;2022-07-05T04:44:16;29.10;47.10
12477;DHT22;6303;51.504;6.300;2022-07-05T04:46:43;29.10;47.00
12477;DHT22;6303;51.504;6.300;2022-07-05T04:49:11;29.10;47.00
12477;DHT22;6303;51.504;6.300;2022-07-05T04:51:39;29.20;47.00
12477;DHT22;6303;51.504;6.300;2022-07-05T04:54:06;29.10;47.00
12477;DHT22;6303;51.504;6.300;2022-07-05T04:56:33;29.10;47.10
12477;DHT22;6303;51.504;6.300;2022-07-05T04:59:00;29.10;47.10
12477;DHT22;6303;51.504;6.300;2022-07-05T05:01:27;29.10;47.10
12477;DHT22;6303;51.504;6.300;2022-07-05T05:03:54;29.10;47.20
12477;DHT22;6303;51.504;6.300;2022-07-05T05:06:21;29.10;47.30
12477;DHT22;6303;51.504;6.300;2022-07-05T05:08:49;29.10;47.50
12477;DHT22;6303;51.504;6.300;2022-07-05T05:11:17;29.10;47.60
12477;DHT22;6303;51.504;6.300;2022-07-05T05:13:44;29.10;47.80
12477;DHT22;6303;51.504;6.300;2022-07-05T05:16:12;29.10;47.80
12477;DHT22;6303;51.504;6.300;2022-07-05T05:18:39;29.10;47.80
12477;DHT22;6303;51.504;6.300;2022-07-05T05:21:06;29.10;47.80
12477;DHT22;6303;51.504;6.300;2022-07-05T05:23:33;29.10;47.90
12477;DHT22;6303;51.504;6.300;2022-07-05T05:26:02;29.20;48.00
12477;DHT22;6303;51.504;6.300;2022-07-05T05:28:29;29.20;48.00
12477;DHT22;6303;51.504;6.300;2022-07-05T05:30:56;29.20;48.00
12477;DHT22;6303;51.504;6.300;2022-07-05T05:33:23;29.20;48.10
12477;DHT22;6303;51.504;6.300;2022-07-05T05:35:50;29.20;48.10
12477;DHT22;6303;51.504;6.300;2022-07-05T05:38:17;29.20;48.10
12477;DHT22;6303;51.504;6.300;2022-07-05T05:40:44;29.10;48.20
12477;DHT22;6303;51.504;6.300;2022-07-05T05:43:12;29.10;48.20
12477;DHT22;6303;51.504;6.300;2022-07-05T05:45:39;29.10;48.30
12477;DHT22;6303;51.504;6.300;2022-07-05T05:48:06;28.10;47.60
12477;DHT22;6303;51.504;6.300;2022-07-05T05:50:34;29.10;48.40
12477;DHT22;6303;51.504;6.300;2022-07-05T05:53:02;29.10;48.50
12477;DHT22;6303;51.504;6.300;2022-07-05T05:55:31;29.10;48.70
12477;DHT22;6303;51.504;6.300;2022-07-05T05:58:11;29.00;48.80
12477;DHT22;6303;51.504;6.300;2022-07-05T06:00:39;29.00;48.80
12477;DHT22;6303;51.504;6.300;2022-07-05T06:03:06;29.00;48.70
12477;DHT22;6303;51.504;6.300;2022-07-05T06:05:33;29.10;48.70
12477;DHT22;6303;51.504;6.300;2022-07-05T06:08:00;29.00;48.60
12477;DHT22;6303;51.504;6.300;2022-07-05T06:10:30;29.10;48.60
12477;DHT22;6303;51.504;6.300;2022-07-05T06:12:59;29.10;48.50
12477;DHT22;6303;51.504;6.300;2022-07-05T06:15:28;29.10;48.50
12477;DHT22;6303;51.504;6.300;2022-07-05T06:17:55;29.20;48.50
12477;DHT22;6303;51.504;6.300;2022-07-05T06:20:24;29.20;48.40
12477;DHT22;6303;51.504;6.300;2022-07-05T06:22:52;29.20;48.40
12477;DHT22;6303;51.504;6.300;2022-07-05T06:25:19;29.20;48.40
12477;DHT22;6303;51.504;6.300;2022-07-05T06:27:49;29.30;48.60
12477;DHT22;6303;51.504;6.300;2022-07-05T06:30:17;29.30;48.90
12477;DHT22;6303;51.504;6.300;2022-07-05T06:32:47;29.40;49.10
12477;DHT22;6303;51.504;6.300;2022-07-05T06:35:15;29.40;49.30
12477;DHT22;6303;51.504;6.300;2022-07-05T06:37:43;29.50;49.50
12477;DHT22;6303;51.504;6.300;2022-07-05T06:40:12;29.50;49.60
12477;DHT22;6303;51.504;6.300;2022-07-05T06:42:40;29.60;49.80
12477;DHT22;6303;51.504;6.300;2022-07-05T06:45:09;29.60;49.80
12477;DHT22;6303;51.504;6.300;2022-07-05T06:47:36;29.80;50.00
12477;DHT22;6303;51.504;6.300;2022-07-05T06:50:06;30.80;50.60
12477;DHT22;6303;51.504;6.300;2022-07-05T06:52:33;29.80;50.10
12477;DHT22;6303;51.504;6.300;2022-07-05T06:55:01;29.80;50.20
12477;DHT22;6303;51.504;6.300;2022-07-05T06:57:28;29.90;50.30
12477;DHT22;6303;51.504;6.300;2022-07-05T06:59:55;30.00;50.40
12477;DHT22;6303;51.504;6.300;2022-07-05T07:02:22;30.00;50.50
12477;DHT22;6303;51.504;6.300;2022-07-05T07:04:50;30.10;50.50
12477;DHT22;6303;51.504;6.300;2022-07-05T07:07:18;30.10;50.60
12477;DHT22;6303;51.504;6.300;2022-07-05T07:10:04;30.10;50.60
12477;DHT22;6303;51.504;6.300;2022-07-05T07:12:31;30.20;50.70
12477;DHT22;6303;51.504;6.300;2022-07-05T07:14:58;30.20;50.80
12477;DHT22;6303;51.504;6.300;2022-07-05T07:17:25;30.30;50.80
12477;DHT22;6303;51.504;6.300;2022-07-05T07:19:52;30.30;50.80
12477;DHT22;6303;51.504;6.300;2022-07-05T07:22:21;30.40;51.00
12477;DHT22;6303;51.504;6.300;2022-07-05T07:24:48;30.40;50.90
12477;DHT22;6303;51.504;6.300;2022-07-05T07:27:15;30.40;49.30
12477;DHT22;6303;51.504;6.300;2022-07-05T07:29:42;30.30;48.50
12477;DHT22;6303;51.504;6.300;2022-07-05T07:32:09;30.30;47.70
12477;DHT22;6303;51.504;6.300;2022-07-05T07:34:37;30.20;49.00
12477;DHT22;6303;51.504;6.300;2022-07-05T07:37:04;30.30;48.80
12477;DHT22;6303;51.504;6.300;2022-07-05T07:39:33;30.30;48.00
12477;DHT22;6303;51.504;6.300;2022-07-05T07:42:00;30.20;49.00
12477;DHT22;6303;51.504;6.300;2022-07-05T07:44:27;30.30;47.90
12477;DHT22;6303;51.504;6.300;2022-07-05T07:46:54;30.20;48.90
12477;DHT22;6303;51.504;6.300;2022-07-05T07:49:21;30.30;49.50
12477;DHT22;6303;51.504;6.300;2022-07-05T07:51:48;30.40;49.40
12477;DHT22;6303;51.504;6.300;2022-07-05T07:54:17;30.50;49.40
12477;DHT22;6303;51.504;6.300;2022-07-05T07:56:45;30.50;48.40
12477;DHT22;6303;51.504;6.300;2022-07-05T07:59:12;30.60;49.10
12477;DHT22;6303;51.504;6.300;2022-07-05T08:01:39;30.70;49.30
12477;DHT22;6303;51.504;6.300;2022-07-05T08:04:06;30.70;49.20
12477;DHT22;6303;51.504;6.300;2022-07-05T08:06:33;30.70;49.10
12477;DHT22;6303;51.504;6.300;2022-07-05T08:09:00;30.90;48.90
12477;DHT22;6303;51.504;6.300;2022-07-05T08:11:27;30.90;48.70
12477;DHT22;6303;51.504;6.300;2022-07-05T08:13:56;30.90;48.10
12477;DHT22;6303;51.504;6.300;2022-07-05T08:16:23;31.00;48.70
12477;DHT22;6303;51.504;6.300;2022-07-05T08:18:50;29.60;45.90
12477;DHT22;6303;51.504;6.300;2022-07-05T08:21:34;31.00;47.10
12477;DHT22;6303;51.504;6.300;2022-07-05T08:24:05;31.00;48.10
12477;DHT22;6303;51.504;6.300;2022-07-05T08:26:33;31.00;48.00
12477;DHT22;6303;51.504;6.300;2022-07-05T08:29:04;31.00;48.00
12477;DHT22;6303;51.504;6.300;2022-07-05T08:31:33;31.10;48.10
12477;DHT22;6303;51.504;6.300;2022-07-05T08:34:01;31.20;48.10
12477;DHT22;6303;51.504;6.300;2022-07-05T08:36:28;31.20;48.00
12477;DHT22;6303;51.504;6.300;2022-07-05T08:38:55;31.30;47.70
12477;DHT22;6303;51.504;6.300;2022-07-05T08:41:23;31.30;47.40
12477;DHT22;6303;51.504;6.300;2022-07-05T08:43:51;31.30;47.80
12477;DHT22;6303;51.504;6.300;2022-07-05T08:46:20;31.40;47.70
12477;DHT22;6303;51.504;6.300;2022-07-05T08:48:48;31.40;47.10
12477;DHT22;6303;51.504;6.300;2022-07-05T08:51:17;31.40;47.50
12477;DHT22;6303;51.504;6.300;2022-07-05T08:53:48;31.50;47.00
12477;DHT22;6303;51.504;6.300;2022-07-05T08:56:16;31.50;47.40
12477;DHT22;6303;51.504;6.300;2022-07-05T08:58:43;31.60;47.40
12477;DHT22;6303;51.504;6.300;2022-07-05T09:01:11;31.60;47.50
12477;DHT22;6303;51.504;6.300;2022-07-05T09:03:43;31.60;47.30
12477;DHT22;6303;51.504;6.300;2022-07-05T09:06:12;31.60;47.10
12477;DHT22;6303;51.504;6.300;2022-07-05T09:08:40;31.70;47.10
12477;DHT22;6303;51.504;6.300;2022-07-05T09:11:09;31.70;46.80
12477;DHT22;6303;51.504;6.300;2022-07-05T09:13:38;31.70;46.60
12477;DHT22;6303;51.504;6.300;2022-07-05T09:16:06;31.70;46.20
12477;DHT22;6303;51.504;6.300;2022-07-05T09:18:42;31.80;46.00
12477;DHT22;6303;51.504;6.300;2022-07-05T09:21:18;31.70;44.90
12477;DHT22;6303;51.504;6.300;2022-07-05T09:23:52;31.40;42.40
12477;DHT22;6303;51.504;6.300;2022-07-05T09:26:21;31.10;42.50
12477;DHT22;6303;51.504;6.300;2022-07-05T09:28:55;30.90;42.80
12477;DHT22;6303;51.504;6.300;2022-07-05T09:31:27;30.70;43.10
12477;DHT22;6303;51.504;6.300;2022-07-05T09:34:03;30.60;43.30
12477;DHT22;6303;51.504;6.300;2022-07-05T09:36:48;30.40;43.50
12477;DHT22;6303;51.504;6.300;2022-07-05T09:39:15;30.20;43.90
12477;DHT22;6303;51.504;6.300;2022-07-05T09:41:42;30.10;44.00
12477;DHT22;6303;51.504;6.300;2022-07-05T09:44:09;30.10;44.20
12477;DHT22;6303;51.504;6.300;2022-07-05T09:46:36;30.00;44.20
12477;DHT22;6303;51.504;6.300;2022-07-05T09:49:05;30.00;44.20
12477;DHT22;6303;51.504;6.300;2022-07-05T09:51:47;30.00;44.20
12477;DHT22;6303;51.504;6.300;2022-07-05T09:54:14;30.00;44.10
12477;DHT22;6303;51.504;6.300;2022-07-05T09:56:45;30.00;44.40
12477;DHT22;6303;51.504;6.300;2022-07-05T09:59:17;30.10;44.50
12477;DHT22;6303;51.504;6.300;2022-07-05T10:01:45;30.10;44.50
12477;DHT22;6303;51.504;6.300;2022-07-05T10:04:14;30.10;44.10
12477;DHT22;6303;51.504;6.300;2022-07-05T10:06:41;30.10;44.10
12477;DHT22;6303;51.504;6.300;2022-07-05T10:09:09;30.20;44.10
12477;DHT22;6303;51.504;6.300;2022-07-05T10:11:39;30.10;43.60
12477;DHT22;6303;51.504;6.300;2022-07-05T10:14:11;30.00;43.40
12477;DHT22;6303;51.504;6.300;2022-07-05T10:16:38;30.00;42.80
12477;DHT22;6303;51.504;6.300;2022-07-05T10:19:08;29.90;42.60
12477;DHT22;6303;51.504;6.300;2022-07-05T10:21:44;29.80;42.40
12477;DHT22;6303;51.504;6.300;2022-07-05T10:24:12;29.80;42.50
12477;DHT22;6303;51.504;6.300;2022-07-05T10:26:40;29.80;42.80
12477;DHT22;6303;51.504;6.300;2022-07-05T10:29:07;29.80;42.80
12477;DHT22;6303;51.504;6.300;2022-07-05T10:31:36;29.80;42.50
12477;DHT22;6303;51.504;6.300;2022-07-05T10:34:04;29.80;42.40
12477;DHT22;6303;51.504;6.300;2022-07-05T10:36:34;29.80;43.60
12477;DHT22;6303;51.504;6.300;2022-07-05T10:39:05;29.80;43.80
12477;DHT22;6303;51.504;6.300;2022-07-05T10:41:32;29.90;43.50
12477;DHT22;6303;51.504;6.300;2022-07-05T10:44:00;29.90;43.30
12477;DHT22;6303;51.504;6.300;2022-07-05T10:46:34;29.80;43.00
12477;DHT22;6303;51.504;6.300;2022-07-05T10:49:14;29.70;42.90
12477;DHT22;6303;51.504;6.300;2022-07-05T10:51:42;29.70;42.90
12477;DHT22;6303;51.504;6.300;2022-07-05T10:54:10;29.80;43.20
12477;DHT22;6303;51.504;6.300;2022-07-05T10:56:38;29.80;43.30
12477;DHT22;6303;51.504;6.300;2022-07-05T10:59:07;29.70;43.10
12477;DHT22;6303;51.504;6.300;2022-07-05T11:01:37;29.80;42.90
12477;DHT22;6303;51.504;6.300;2022-07-05T11:04:27;29.70;42.80
12477;DHT22;6303;51.504;6.300;2022-07-05T11:07:00;29.80;42.70
12477;DHT22;6303;51.504;6.300;2022-07-05T11:09:31;29.80;42.80
12477;DHT22;6303;51.504;6.300;2022-07-05T11:12:07;29.80;42.90
12477;DHT22;6303;51.504;6.300;2022-07-05T11:14:39;29.80;42.90
12477;DHT22;6303;51.504;6.300;2022-07-05T11:20:09;29.50;43.40
12477;DHT22;6303;51.504;6.300;2022-07-05T11:22:39;29.50;44.00
12477;DHT22;6303;51.504;6.300;2022-07-05T11:25:15;29.40;43.70
12477;DHT22;6303;51.504;6.300;2022-07-05T11:28:20;29.30;43.90
12477;DHT22;6303;51.504;6.300;2022-07-05T11:30:57;29.40;43.70
12477;DHT22;6303;51.504;6.300;2022-07-05T11:33:28;29.40;43.70
12477;DHT22;6303;51.504;6.300;2022-07-05T11:35:57;29.30;44.10
12477;DHT22;6303;51.504;6.300;2022-07-05T11:38:25;29.30;43.80
12477;DHT22;6303;51.504;6.300;2022-07-05T11:40:55;29.30;44.30
12477;DHT22;6303;51.504;6.300;2022-07-05T11:43:26;29.30;44.50
12477;DHT22;6303;51.504;6.300;2022-07-05T11:45:57;29.30;44.30
12477;DHT22;6303;51.504;6.300;2022-07-05T11:48:28;29.30;44.30
12477;DHT22;6303;51.504;6.300;2022-07-05T11:50:57;29.20;44.40
12477;DHT22;6303;51.504;6.300;2022-07-05T11:53:28;29.10;44.60
12477;DHT22;6303;51.504;6.300;2022-07-05T11:55:59;28.90;44.60
12477;DHT22;6303;51.504;6.300;2022-07-05T11:58:44;28.70;45.20
12477;DHT22;6303;51.504;6.300;2022-07-05T12:01:14;28.70;45.00
12477;DHT22;6303;51.504;6.300;2022-07-05T12:03:53;28.90;44.90
12477;DHT22;6303;51.504;6.300;2022-07-05T12:06:22;29.10;44.60
12477;DHT22;6303;51.504;6.300;2022-07-05T12:09:05;29.20;44.30
12477;DHT22;6303;51.504;6.300;2022-07-05T12:11:35;29.20;44.50
12477;DHT22;6303;51.504;6.300;2022-07-05T12:14:22;29.30;44.40
12477;DHT22;6303;51.504;6.300;2022-07-05T12:17:11;29.40;44.30
12477;DHT22;6303;51.504;6.300;2022-07-05T12:19:40;29.50;44.10
12477;DHT22;6303;51.504;6.300;2022-07-05T12:22:10;29.50;44.10
12477;DHT22;6303;51.504;6.300;2022-07-05T12:24:39;29.50;44.10
12477;DHT22;6303;51.504;6.300;2022-07-05T12:27:09;29.50;43.90
12477;DHT22;6303;51.504;6.300;2022-07-05T12:29:37;29.60;43.80
12477;DHT22;6303;51.504;6.300;2022-07-05T12:32:05;29.60;43.60
12477;DHT22;6303;51.504;6.300;2022-07-05T12:34:34;29.60;43.70
12477;DHT22;6303;51.504;6.300;2022-07-05T12:37:02;29.40;43.90
12477;DHT22;6303;51.504;6.300;2022-07-05T12:39:29;29.40;43.70
12477;DHT22;6303;51.504;6.300;2022-07-05T12:41:56;30.00;44.10
12477;DHT22;6303;51.504;6.300;2022-07-05T12:44:24;29.50;43.80
12477;DHT22;6303;51.504;6.300;2022-07-05T12:46:51;29.50;43.60
12477;DHT22;6303;51.504;6.300;2022-07-05T12:49:19;29.60;44.20
12477;DHT22;6303;51.504;6.300;2022-07-05T12:51:46;29.60;43.50
12477;DHT22;6303;51.504;6.300;2022-07-05T12:54:20;29.70;43.80
12477;DHT22;6303;51.504;6.300;2022-07-05T12:57:06;29.70;44.00
12477;DHT22;6303;51.504;6.300;2022-07-05T13:00:00;29.70;43.80
12477;DHT22;6303;51.504;6.300;2022-07-05T13:02:38;29.50;44.10
12477;DHT22;6303;51.504;6.300;2022-07-05T13:05:07;29.40;44.60
12477;DHT22;6303;51.504;6.300;2022-07-05T13:07:41;29.40;44.90
12477;DHT22;6303;51.504;6.300;2022-07-05T13:10:16;29.50;45.10
12477;DHT22;6303;51.504;6.300;2022-07-05T13:12:45;29.50;45.50
12477;DHT22;6303;51.504;6.300;2022-07-05T13:15:13;29.40;45.60
12477;DHT22;6303;51.504;6.300;2022-07-05T13:17:41;29.50;45.50
12477;DHT22;6303;51.504;6.300;2022-07-05T13:20:10;29.40;45.40
12477;DHT22;6303;51.504;6.300;2022-07-05T13:22:37;29.40;45.10
12477;DHT22;6303;51.504;6.300;2022-07-05T13:25:05;29.50;45.50
12477;DHT22;6303;51.504;6.300;2022-07-05T13:27:32;29.50;44.70
12477;DHT22;6303;51.504;6.300;2022-07-05T13:30:00;29.50;44.70
12477;DHT22;6303;51.504;6.300;2022-07-05T13:32:29;29.50;44.80
12477;DHT22;6303;51.504;6.300;2022-07-05T13:34:57;29.50;44.80
12477;DHT22;6303;51.504;6.300;2022-07-05T13:37:24;29.50;44.90
12477;DHT22;6303;51.504;6.300;2022-07-05T13:39:51;29.40;45.00
12477;DHT22;6303;51.504;6.300;2022-07-05T13:42:18;29.50;45.10
12477;DHT22;6303;51.504;6.300;2022-07-05T13:44:45;29.50;45.00
12477;DHT22;6303;51.504;6.300;2022-07-05T13:47:12;29.50;44.90
12477;DHT22;6303;51.504;6.300;2022-07-05T13:49:40;29.50;45.10
12477;DHT22;6303;51.504;6.300;2022-07-05T13:52:08;29.60;45.20
12477;DHT22;6303;51.504;6.300;2022-07-05T13:54:35;29.50;45.10
12477;DHT22;6303;51.504;6.300;2022-07-05T13:57:03;29.50;45.00
12477;DHT22;6303;51.504;6.300;2022-07-05T13:59:30;29.50;44.80
12477;DHT22;6303;51.504;6.300;2022-07-05T14:01:58;29.50;44.70
12477;DHT22;6303;51.504;6.300;2022-07-05T14:04:25;29.40;44.70
12477;DHT22;6303;51.504;6.300;2022-07-05T14:06:57;29.30;45.00
12477;DHT22;6303;51.504;6.300;2022-07-05T14:09:25;29.40;45.10
12477;DHT22;6303;51.504;6.300;2022-07-05T14:11:53;29.40;45.30
12477;DHT22;6303;51.504;6.300;2022-07-05T14:14:20;29.50;45.70
12477;DHT22;6303;51.504;6.300;2022-07-05T14:16:48;29.40;45.60
12477;DHT22;6303;51.504;6.300;2022-07-05T14:19:15;29.40;45.50
12477;DHT22;6303;51.504;6.300;2022-07-05T14:21:42;29.50;45.50
12477;DHT22;6303;51.504;6.300;2022-07-05T14:24:14;29.50;45.40
12477;DHT22;6303;51.504;6.300;2022-07-05T14:26:41;29.50;45.10
12477;DHT22;6303;51.504;6.300;2022-07-05T14:29:08;29.50;44.90
12477;DHT22;6303;51.504;6.300;2022-07-05T14:31:35;29.50;44.90
12477;DHT22;6303;51.504;6.300;2022-07-05T14:34:02;29.50;44.80
12477;DHT22;6303;51.504;6.300;2022-07-05T14:36:30;29.90;45.10
12477;DHT22;6303;51.504;6.300;2022-07-05T14:38:57;29.60;45.00
12477;DHT22;6303;51.504;6.300;2022-07-05T14:41:27;29.60;45.00
12477;DHT22;6303;51.504;6.300;2022-07-05T14:43:55;29.60;44.90
12477;DHT22;6303;51.504;6.300;2022-07-05T14:46:22;29.50;45.10
12477;DHT22;6303;51.504;6.300;2022-07-05T14:48:49;29.50;45.10
12477;DHT22;6303;51.504;6.300;2022-07-05T14:51:16;29.50;45.10
12477;DHT22;6303;51.504;6.300;2022-07-05T14:53:44;29.40;45.00
12477;DHT22;6303;51.504;6.300;2022-07-05T14:56:12;29.50;45.00
12477;DHT22;6303;51.504;6.300;2022-07-05T14:58:41;29.40;44.80
12477;DHT22;6303;51.504;6.300;2022-07-05T15:01:08;29.40;44.90
12477;DHT22;6303;51.504;6.300;2022-07-05T15:03:35;29.40;44.90
12477;DHT22;6303;51.504;6.300;2022-07-05T15:06:02;29.40;44.90
12477;DHT22;6303;51.504;6.300;2022-07-05T15:08:30;29.10;44.70
12477;DHT22;6303;51.504;6.300;2022-07-05T15:10:58;29.20;44.70
12477;DHT22;6303;51.504;6.300;2022-07-05T15:13:25;29.20;44.60
12477;DHT22;6303;51.504;6.300;2022-07-05T15:15:54;29.20;44.60
12477;DHT22;6303;51.504;6.300;2022-07-05T15:18:22;29.00;45.10
12477;DHT22;6303;51.504;6.300;2022-07-05T15:20:51;28.90;45.40
12477;DHT22;6303;51.504;6.300;2022-07-05T15:23:19;29.00;45.50
12477;DHT22;6303;51.504;6.300;2022-07-05T15:25:46;29.10;45.60
12477;DHT22;6303;51.504;6.300;2022-07-05T15:28:13;29.20;45.30
12477;DHT22;6303;51.504;6.300;2022-07-05T15:30:41;29.20;45.40
12477;DHT22;6303;51.504;6.300;2022-07-05T15:33:10;29.30;45.40
12477;DHT22;6303;51.504;6.300;2022-07-05T15:35:37;29.30;45.30
12477;DHT22;6303;51.504;6.300;2022-07-05T15:38:04;29.40;45.30
12477;DHT22;6303;51.504;6.300;2022-07-05T15:40:31;29.50;45.30
12477;DHT22;6303;51.504;6.300;2022-07-05T15:42:59;29.70;45.30
12477;DHT22;6303;51.504;6.300;2022-07-05T15:45:26;29.80;45.30
12477;DHT22;6303;51.504;6.300;2022-07-05T15:47:53;29.80;45.10
12477;DHT22;6303;51.504;6.300;2022-07-05T15:50:21;29.80;45.00
12477;DHT22;6303;51.504;6.300;2022-07-05T15:52:49;29.90;45.60
12477;DHT22;6303;51.504;6.300;2022-07-05T15:55:16;29.90;44.70
12477;DHT22;6303;51.504;6.300;2022-07-05T15:57:43;29.90;44.80